• Join FlightAware (Why Join?)
  • Login
  • US Flag 
09:12PM EST


 

Airport Tracker/Info


-or-


 

Live Flight TrackerFlight Track Log ✈ UAL4596 ✈ 15-Apr-2013 ✈ KEWR - KSTL

Flight Track Log - Related Links

Times and Time Zones

All times are in EDT time to prevent confusion due to time zone crossing. See the UAL4596 flight status page for this flight to view local times or setup timezone preferences in your user account.

Time Position Orientation Groundspeed Altitude Reporting Facility
EDT Latitude Longitude Course Direction KTS MPH feet Rate Location/Type
03:19PM 40.6333 -74.1833 270° West 191 220 2,200  Level New York TRACON
03:20PM 40.6333 -74.2667 270° West 229 264 4,400 2,100 Climbing New York TRACON
03:21PM 40.6167 -74.3500 255° West 250 288 6,500 2,040 Climbing New York TRACON
03:22PM 40.7463 -74.6590 277° West  Level FlightAware Approximate
03:22PM 40.6333 -74.4333 285° West 272 313 8,500  Level New York TRACON
03:23PM 40.7567 -74.7870 276° West  Level FlightAware Approximate
03:23PM 40.6667 -74.5333 294° West 289 333 10,300  Level New York TRACON
03:24PM 40.7665 -74.9150 276° West  Level FlightAware Approximate
03:25PM 40.7833 -75.0391 270° West  Level FlightAware Approximate
03:25PM 40.7081 -74.7214 286° West 337 388 12,000  Level New York Center
03:26PM 40.7353 -74.8406 287° West 348 400 13,300 1,260 Climbing New York Center
03:27PM 40.7644 -74.9575 288° West 356 410 14,500 1,320 Climbing New York Center
03:28PM 40.7572 -75.0967 266° West 356 410 16,000 1,080 Climbing New York Center
03:30PM 40.7042 -75.3481 255° West 353 406 17,800 960 Climbing New York Center
03:31PM 40.6783 -75.4775 255° West 358 412 18,900 1,020 Climbing New York Center
03:32PM 40.6503 -75.6042 254° West 358 412 19,900 1,080 Climbing New York Center
03:33PM 40.6219 -75.7336 254° West 363 418 21,100 1,140 Climbing New York Center
03:34PM 40.5919 -75.8489 251° West 369 425 22,200 1,020 Climbing New York Center
03:35PM 40.5406 -75.9761 242° Southwest 387 445 23,200 1,020 Climbing New York Center
03:36PM 40.4933 -76.1008 244° Southwest 392 451 24,300 1,140 Climbing New York Center
03:37PM 40.4414 -76.2361 243° Southwest 392 451 25,500 1,200 Climbing New York Center
03:38PM 40.3939 -76.3603 243° Southwest 387 445 26,700 1,080 Climbing New York Center
03:39PM 40.3486 -76.4767 243° Southwest 377 434 27,700 960 Climbing New York Center
03:40PM 40.3217 -76.6025 254° West 371 427 28,700 960 Climbing New York Center
03:41PM 40.3008 -76.7258 258° West 360 414 29,700 960 Climbing New York Center
03:42PM 40.2819 -76.8547 259° West 360 414 30,700 600 Climbing New York Center
03:43PM 40.2625 -76.9836 259° West 360 414 31,000 600 Climbing New York Center
03:44PM 40.2450 -77.1181 260° West 374 430 32,000 960 Climbing New York Center
03:46PM 40.2006 -77.3483 256° West 374 430 33,600 960 Climbing Cleveland Center
03:47PM 40.1644 -77.4722 249° West 379 436 34,600 900 Climbing Cleveland Center
03:48PM 40.1261 -77.5989 248° West 379 436 35,400 600 Climbing Cleveland Center
03:49PM 40.0961 -77.7278 253° West 379 436 35,900 300 Climbing Cleveland Center
03:50PM 40.0972 -77.8581 271° West 362 417 36,000  Climbing Cleveland Center
03:51PM 40.0917 -77.9778 267° West 367 422 36,000  Level Cleveland Center
03:52PM 40.0903 -78.1108 269° West 372 428 36,000  Level Cleveland Center
03:53PM 40.0850 -78.2494 267° West 372 428 36,000  Level Cleveland Center
03:54PM 40.0833 -78.3825 269° West 372 428 36,000  Level Cleveland Center
03:55PM 40.0817 -78.5181 269° West 372 428 36,000  Level Cleveland Center
03:56PM 40.0800 -78.6567 269° West 372 428 36,000  Level Cleveland Center
03:57PM 40.0761 -78.7922 268° West 377 434 36,000  Level Cleveland Center
03:58PM 40.0739 -78.9281 269° West 377 434 36,000  Level Cleveland Center
03:59PM 40.0717 -79.0639 269° West 382 440 36,000  Level Cleveland Center
04:00PM 40.0672 -79.1994 268° West 387 445 36,000  Level Cleveland Center
04:01PM 40.0667 -79.3461 270° West 381 438 36,000  Level Cleveland Center
04:02PM 40.0639 -79.4817 269° West 381 438 36,000  Level Cleveland Center
04:03PM 40.0589 -79.6147 267° West 381 438 36,000  Level Cleveland Center
04:04PM 40.0558 -79.7503 268° West 381 438 36,000  Level Cleveland Center
04:05PM 40.0525 -79.8589 268° West 381 438 36,000  Level Cleveland Center
04:06PM 40.0469 -80.0056 267° West 381 438 36,000  Level Cleveland Center
04:07PM 40.0433 -80.1383 268° West 381 438 36,000  Level Cleveland Center
04:08PM 40.0397 -80.2686 268° West 376 433 36,000  Level Cleveland Center
04:09PM 40.0336 -80.4042 267° West 376 433 36,000  Level Cleveland Center
04:10PM 40.0297 -80.5397 268° West 376 433 36,000  Level Cleveland Center
04:11PM 40.0256 -80.6725 268° West 376 433 36,000  Level Cleveland Center
04:12PM 40.0189 -80.8081 266° West 371 427 36,000  Level Cleveland Center
04:13PM 40.0167 -80.9436 269° West 371 427 36,000  Level Cleveland Center
04:14PM 40.0139 -81.0764 268° West 371 427 36,000  Level Cleveland Center
04:14PM 40.0128 -81.1322 269° West 375 432 36,000  Level Indianapolis Center
04:15PM 40.0094 -81.2681 268° West 373 429 36,000  Level Indianapolis Center
04:16PM 40.0075 -81.4053 269° West 374 430 36,000  Level Indianapolis Center
04:17PM 40.0047 -81.5411 269° West 372 428 36,000  Level Indianapolis Center
04:18PM 40.0025 -81.6778 269° West 372 428 36,000  Level Indianapolis Center
04:19PM 39.9994 -81.8269 269° West 371 427 36,000  Level Indianapolis Center
04:20PM 39.9956 -81.9628 268° West 371 427 36,000  Level Indianapolis Center
04:21PM 39.9925 -82.0992 268° West 373 429 36,000  Level Indianapolis Center
04:22PM 39.9897 -82.2350 269° West 372 428 36,000  Level Indianapolis Center
04:23PM 39.9856 -82.3706 268° West 373 429 36,000  Level Indianapolis Center
04:24PM 39.9819 -82.5072 268° West 374 430 36,000  Level Indianapolis Center
04:25PM 39.9778 -82.6647 268° West 372 428 36,000  Level Indianapolis Center
04:26PM 39.9733 -82.7986 268° West 367 422 36,000  Level Indianapolis Center
04:27PM 39.9694 -82.9342 268° West 371 427 36,000  Level Indianapolis Center
04:28PM 39.9650 -83.0706 268° West 373 429 36,000  Level Indianapolis Center
04:29PM 39.9631 -83.2064 269° West 373 429 36,000  Level Indianapolis Center
04:30PM 39.9586 -83.3417 268° West 373 429 36,000  Level Indianapolis Center
04:31PM 39.9539 -83.4978 268° West 374 430 36,000  Level Indianapolis Center
04:32PM 39.9481 -83.6317 267° West 375 432 36,000  Level Indianapolis Center
04:34PM 39.9428 -83.7650 267° West 369 425 36,000  Level Indianapolis Center
04:35PM 39.9375 -83.9011 267° West 373 429 36,000  Level Indianapolis Center
04:36PM 39.9319 -84.0347 267° West 370 426 36,000  Level Indianapolis Center
04:37PM 39.9264 -84.1703 267° West 372 428 36,000  Level Indianapolis Center
04:38PM 39.9197 -84.3269 267° West 369 425 36,000  Level Indianapolis Center
04:39PM 39.9142 -84.4622 267° West 371 427 36,000  Level Indianapolis Center
04:40PM 39.9083 -84.5958 267° West 368 423 36,000  Level Indianapolis Center
04:41PM 39.9019 -84.7297 266° West 368 423 36,000  Level Indianapolis Center
04:42PM 39.8964 -84.8639 267° West 369 425 36,000  Level Indianapolis Center
04:43PM 39.8897 -84.9975 266° West 368 423 36,000  Level Indianapolis Center
04:44PM 39.8836 -85.1303 267° West 367 422 36,000  Level Indianapolis Center
04:45PM 39.8742 -85.2858 266° West 368 423 36,000  Level Indianapolis Center
04:46PM 39.8672 -85.4200 266° West 367 422 36,000  Level Indianapolis Center
04:47PM 39.8611 -85.5539 267° West 368 423 36,000  Level Indianapolis Center
04:48PM 39.8542 -85.6867 266° West 366 421 36,000  Level Indianapolis Center
04:49PM 39.8444 -85.8211 265° West 368 423 36,000  Level Indianapolis Center
04:50PM 39.8150 -85.9658 255° West 367 422 36,000  Level Indianapolis Center
04:51PM 39.7908 -86.0933 256° West 364 419 36,000  Level Indianapolis Center
04:52PM 39.7647 -86.2211 255° West 364 419 36,000  Level Indianapolis Center
04:53PM 39.7389 -86.3481 255° West 364 419 36,000  Level Indianapolis Center
04:54PM 39.7153 -86.4781 257° West 368 423 36,000  Level Indianapolis Center
04:55PM 39.6881 -86.6044 254° West 364 419 36,000  Level Indianapolis Center
04:56PM 39.6636 -86.7336 256° West 366 421 36,000  Level Indianapolis Center
04:57PM 39.6381 -86.8619 256° West 367 422 36,000 -180 Level Indianapolis Center
04:58PM 39.6069 -87.0158 255° West 369 425 35,700 -540 Descending Indianapolis Center
04:59PM 39.5792 -87.1456 255° West 373 429 35,000 -720 Descending Indianapolis Center
05:00PM 39.5525 -87.2778 255° West 378 435 34,300 -720 Descending Indianapolis Center
05:01PM 39.5258 -87.4081 255° West 375 432 33,600 -540 Descending Indianapolis Center
05:02PM 39.4986 -87.5386 255° West 375 432 33,300 -240 Descending Indianapolis Center
05:03PM 39.4708 -87.6711 255° West 380 437 33,200 -480 Descending Indianapolis Center
05:04PM 39.4428 -87.8017 254° West 378 435 32,400 -1,860 Descending Indianapolis Center
05:05PM 39.4208 -87.9078 255° West 380 437 30,100 -2,520 Descending Kansas City Center
05:06PM 39.3939 -88.0361 255° West 374 430 28,000 -1,020 Descending Kansas City Center
05:07PM 39.3617 -88.1650 252° West 374 430 28,000  Level Kansas City Center
05:08PM 39.3256 -88.2936 250° West 377 434 28,000  Level Kansas City Center
05:09PM 39.2939 -88.4172 252° West 371 427 28,000  Level Kansas City Center
05:10PM 39.2547 -88.5678 251° West 369 425 28,000  Level Kansas City Center
05:11PM 39.2186 -88.6981 250° West 374 430 28,000  Level Kansas City Center
05:12PM 39.1844 -88.8281 251° West 380 437 28,000  Level Kansas City Center
05:13PM 39.1464 -88.9661 250° West 381 438 28,000 -240 Level Kansas City Center
05:14PM 39.1117 -89.0931 251° West 378 435 27,600 -2,100 Descending Kansas City Center
05:16PM 39.0764 -89.1831 243° Southwest 363 418 23,600 -3,600 Descending FAA TRACON SMA TRACON (SMA)
05:16PM 39.0683 -89.2217 255° West 362 417 22,500 -3,300 Descending FAA TRACON SMA TRACON (SMA)
05:16PM 39.0592 -89.2586 252° West 356 410 21,400 -3,540 Descending FAA TRACON SMA TRACON (SMA)
05:17PM 39.0486 -89.3053 254° West 354 407 20,100 -3,600 Descending FAA TRACON SMA TRACON (SMA)
05:17PM 39.0400 -89.3428 254° West 353 406 19,000 -3,600 Descending FAA TRACON SMA TRACON (SMA)
05:17PM 39.0308 -89.3786 252° West 347 399 17,700 -3,780 Descending FAA TRACON SMA TRACON (SMA)
05:18PM 39.0211 -89.4236 254° West 341 392 16,500 -3,000 Descending FAA TRACON SMA TRACON (SMA)
05:18PM 39.0119 -89.4581 251° West 333 383 15,700 -2,100 Descending FAA TRACON SMA TRACON (SMA)
05:18PM 39.0047 -89.4933 255° West 330 380 15,100 -1,260 Descending FAA TRACON SMA TRACON (SMA)
05:19PM 38.9939 -89.5358 252° West 327 376 14,900 -300 Descending FAA TRACON SMA TRACON (SMA)
05:19PM 38.9839 -89.5686 249° West 323 372 14,900  Level FAA TRACON SMA TRACON (SMA)
05:19PM 38.9728 -89.6003 246° West 318 366 14,900  Level FAA TRACON SMA TRACON (SMA)
05:20PM 38.9606 -89.6406 249° West 317 365 14,900  Level FAA TRACON SMA TRACON (SMA)
05:20PM 38.9497 -89.6728 247° West 316 364 14,900 -300 Level FAA TRACON SMA TRACON (SMA)
05:20PM 38.9397 -89.7050 248° West 316 364 14,700 -780 Descending FAA TRACON SMA TRACON (SMA)
05:21PM 38.9275 -89.7450 249° West 313 360 14,400 -900 Descending FAA TRACON SMA TRACON (SMA)
05:21PM 38.9172 -89.7758 247° West 308 354 14,100 -900 Descending FAA TRACON SMA TRACON (SMA)
05:21PM 38.9069 -89.8069 247° West 307 353 13,800 -1,080 Descending FAA TRACON SMA TRACON (SMA)
05:22PM 38.8950 -89.8453 248° West 302 348 13,400 -1,080 Descending FAA TRACON SMA TRACON (SMA)
05:22PM 38.8850 -89.8758 247° West 301 346 13,100 -900 Descending FAA TRACON SMA TRACON (SMA)
05:22PM 38.8756 -89.9058 248° West 297 342 12,800 -1,080 Descending FAA TRACON SMA TRACON (SMA)
05:23PM 38.8631 -89.9433 247° West 296 341 12,400 -1,080 Descending FAA TRACON SMA TRACON (SMA)
05:23PM 38.8536 -89.9731 248° West 293 337 12,100 -900 Descending FAA TRACON SMA TRACON (SMA)
05:23PM 38.8444 -90.0028 248° West 292 336 11,800 -960 Descending FAA TRACON SMA TRACON (SMA)
05:24PM 38.8322 -90.0397 247° West 292 336 11,500 -900 Descending FAA TRACON SMA TRACON (SMA)
05:24PM 38.8231 -90.0681 247° West 284 327 11,200 -900 Descending FAA TRACON SMA TRACON (SMA)
05:24PM 38.8147 -90.0950 248° West 270 311 10,900 -1,080 Descending FAA TRACON SMA TRACON (SMA)
05:25PM 38.8042 -90.1269 247° West 254 292 10,500 -1,080 Descending FAA TRACON SMA TRACON (SMA)
05:25PM 38.8011 -90.1528 261° West 248 285 10,200 -900 Descending FAA TRACON SMA TRACON (SMA)
05:25PM 38.8100 -90.1778 295° West 253 291 9,900 -1,080 Descending FAA TRACON SMA TRACON (SMA)
05:26PM 38.8225 -90.2083 298° West 251 289 9,500 -1,080 Descending FAA TRACON SMA TRACON (SMA)
05:26PM 38.8325 -90.2325 298° West 250 288 9,200 -900 Descending FAA TRACON SMA TRACON (SMA)
05:26PM 38.8419 -90.2567 297° West 249 287 8,900 -1,080 Descending FAA TRACON SMA TRACON (SMA)
05:27PM 38.8544 -90.2867 298° West 248 285 8,500 -1,080 Descending FAA TRACON SMA TRACON (SMA)
05:27PM 38.8636 -90.3103 297° West 243 280 8,200 -1,020 Descending FAA TRACON SMA TRACON (SMA)
05:28PM 38.8839 -90.3600 298° West 224 258 7,500 -1,140 Descending FAA TRACON SMA TRACON (SMA)
05:28PM 38.8925 -90.3814 297° West 219 252 7,100 -1,380 Descending FAA TRACON SMA TRACON (SMA)
05:28PM 38.9036 -90.4075 299° West 218 251 6,600 -1,380 Descending FAA TRACON SMA TRACON (SMA)
05:29PM 38.9122 -90.4278 299° West 215 247 6,200 -1,080 Descending FAA TRACON SMA TRACON (SMA)
05:29PM 38.9211 -90.4489 298° West 214 246 5,900 -1,080 Descending FAA TRACON SMA TRACON (SMA)
05:29PM 38.9192 -90.4731 264° West 206 237 5,500 -1,080 Descending FAA TRACON SMA TRACON (SMA)
05:30PM 38.9067 -90.4831 212° Southwest 186 214 5,200 -900 Descending FAA TRACON SMA TRACON (SMA)
05:30PM 38.8936 -90.4919 208° Southwest 174 200 4,900 -1,080 Descending FAA TRACON SMA TRACON (SMA)
05:30PM 38.8764 -90.5039 208° Southwest 178 205 4,500 -1,080 Descending FAA TRACON SMA TRACON (SMA)
05:31PM 38.8625 -90.5086 195° South 180 207 4,200 -900 Descending FAA TRACON SMA TRACON (SMA)
05:31PM 38.8483 -90.4978 149° Southeast 195 224 3,900 -900 Descending FAA TRACON SMA TRACON (SMA)
05:31PM 38.8322 -90.4811 141° Southeast 194 223 3,600 -900 Descending FAA TRACON SMA TRACON (SMA)